Time;durP1;ratioP1;P1;durP2;ratioP2;P2;SDS_P1;SDS_P2;PMS_P1;PMS_P2;Temp;Humidity;BMP_temperature;BMP_pressure;BME280_temperature;BME280_humidity;BME280_pressure;Samples;Min_cycle;Max_cycle;Signal;HPM_P1;HPM_P2
2021/06/14 00:00:11;;;;;;;16.42;10.35;;;;;;;18.94;47.65;102333.97;5050741;27;114445;-73
2021/06/14 00:02:39;;;;;;;16.50;10.52;;;;;;;18.89;47.76;102327.97;5033153;27;114345;-73
2021/06/14 00:05:11;;;;;;;16.38;10.65;;;;;;;18.86;47.87;102321.81;5043805;27;123822;-75
2021/06/14 00:07:38;;;;;;;15.52;10.60;;;;;;;18.83;47.86;102319.31;5049737;27;122809;-73
2021/06/14 00:10:07;;;;;;;20.27;10.45;;;;;;;18.79;48.12;102322.22;5051567;27;114521;-74
2021/06/14 00:12:35;;;;;;;16.33;10.30;;;;;;;18.75;48.03;102313.47;5037366;27;113198;-74
2021/06/14 00:15:05;;;;;;;19.67;10.75;;;;;;;18.72;48.42;102310.09;5049536;27;124083;-73
2021/06/14 00:17:32;;;;;;;14.82;10.43;;;;;;;18.68;48.37;102304.03;5038983;27;123576;-74
2021/06/14 00:20:00;;;;;;;23.83;10.75;;;;;;;18.66;48.42;102305.94;5050081;27;114518;-73
2021/06/14 00:22:27;;;;;;;19.48;10.25;;;;;;;18.63;48.65;102303.44;5048954;27;114210;-74
2021/06/14 00:24:54;;;;;;;20.35;10.50;;;;;;;18.62;48.58;102304.38;5050641;27;124193;-73
2021/06/14 00:27:21;;;;;;;14.43;9.52;;;;;;;18.59;48.72;102309.91;5039011;27;123996;-74
2021/06/14 00:29:48;;;;;;;16.80;9.70;;;;;;;18.57;48.81;102301.09;5028973;27;114718;-73
2021/06/14 00:32:15;;;;;;;17.27;9.95;;;;;;;18.56;48.99;102304.72;5030605;27;114108;-73
2021/06/14 00:34:42;;;;;;;14.52;10.25;;;;;;;18.52;48.96;102303.19;5046208;27;123747;-73
2021/06/14 00:37:09;;;;;;;18.98;10.60;;;;;;;18.48;49.06;102306.03;5050673;27;123827;-73
2021/06/14 00:39:36;;;;;;;15.65;9.88;;;;;;;18.43;49.17;102297.34;5047896;27;114302;-73
2021/06/14 00:42:04;;;;;;;18.70;9.65;;;;;;;18.39;49.18;102298.47;5042974;27;114968;-73
2021/06/14 00:44:31;;;;;;;15.18;10.00;;;;;;;18.35;49.25;102299.59;5043380;27;124277;-73
2021/06/14 00:46:58;;;;;;;21.48;9.52;;;;;;;18.30;49.32;102293.59;5049724;27;124708;-73
2021/06/14 00:49:25;;;;;;;15.90;9.77;;;;;;;18.25;49.14;102291.19;5049549;27;114276;-74
2021/06/14 00:51:53;;;;;;;14.23;9.93;;;;;;;18.22;49.35;102285.97;5048995;27;114038;-73
2021/06/14 00:54:20;;;;;;;18.50;10.50;;;;;;;18.18;49.44;102283.56;5043881;27;124814;-73
2021/06/14 00:56:47;;;;;;;17.95;9.88;;;;;;;18.14;49.33;102287.34;5044875;27;123275;-73
2021/06/14 00:59:14;;;;;;;14.43;10.20;;;;;;;18.09;49.60;102283.09;5051312;27;114456;-74
2021/06/14 01:01:42;;;;;;;16.52;10.00;;;;;;;18.05;49.57;102284.22;5035880;27;113751;-74
2021/06/14 01:04:10;;;;;;;17.35;10.50;;;;;;;18.02;49.68;102279.00;5051628;27;123373;-73
2021/06/14 01:06:38;;;;;;;20.05;10.98;;;;;;;17.99;49.85;102279.19;5035450;27;123629;-73
2021/06/14 01:09:07;;;;;;;17.55;10.50;;;;;;;17.97;49.70;102270.34;5048522;27;112710;-73
2021/06/14 01:12:07;;;;;;;17.48;10.38;;;;;;;17.92;49.60;102274.22;5045608;27;114196;-73
2021/06/14 01:15:00;;;;;;;16.55;10.57;;;;;;;17.87;49.86;102269.97;5047005;27;123640;-73
2021/06/14 01:17:38;;;;;;;18.85;11.05;;;;;;;17.85;49.99;102265.63;5048556;27;124216;-73
2021/06/14 01:20:24;;;;;;;16.85;10.55;;;;;;;17.81;49.94;102264.91;5069785;27;113158;-73
2021/06/14 01:23:18;;;;;;;17.50;11.02;;;;;;;17.76;49.87;102255.38;5052606;27;113102;-73
2021/06/14 01:25:53;;;;;;;18.02;10.80;;;;;;;17.75;50.15;102269.72;5051805;27;123473;-73
2021/06/14 01:28:22;;;;;;;16.17;11.10;;;;;;;17.73;50.55;102259.09;5049762;27;124352;-74
2021/06/14 01:30:53;;;;;;;13.27;10.63;;;;;;;17.71;50.49;102247.59;5051717;27;114850;-72
2021/06/14 01:33:27;;;;;;;17.20;11.07;;;;;;;17.68;50.62;102248.59;5046870;27;114221;-73
2021/06/14 01:36:03;;;;;;;17.27;10.68;;;;;;;17.66;50.65;102250.50;5044516;27;123758;-73
2021/06/14 01:38:34;;;;;;;15.63;10.18;;;;;;;17.64;50.67;102252.38;5030998;27;123600;-73
2021/06/14 01:41:06;;;;;;;16.92;11.02;;;;;;;17.60;50.81;102248.13;5062811;22;114664;-72
2021/06/14 01:43:37;;;;;;;13.65;10.52;;;;;;;17.57;50.89;102245.59;5052679;27;115372;-72
2021/06/14 01:46:11;;;;;;;17.25;9.82;;;;;;;17.55;51.00;102242.16;5053664;27;124183;-72
2021/06/14 01:48:42;;;;;;;16.67;10.07;;;;;;;17.53;51.00;102233.31;5052455;27;123017;-72
2021/06/14 01:51:12;;;;;;;17.90;10.80;;;;;;;17.51;50.93;102237.91;5053049;27;114617;-72
2021/06/14 01:53:42;;;;;;;17.00;10.73;;;;;;;17.48;50.80;102235.41;5052942;27;114161;-72
2021/06/14 01:56:09;;;;;;;16.38;10.18;;;;;;;17.47;51.12;102226.47;5053153;27;124307;-72
2021/06/14 01:58:41;;;;;;;13.98;9.93;;;;;;;17.45;51.01;102224.84;5050027;27;123081;-72
2021/06/14 02:01:22;;;;;;;18.10;10.40;;;;;;;17.43;50.81;102221.38;5043458;27;114610;-72
2021/06/14 02:03:55;;;;;;;17.48;11.45;;;;;;;17.41;50.97;102224.13;5052994;27;113242;-72
2021/06/14 02:06:39;;;;;;;17.38;10.48;;;;;;;17.37;51.12;102216.34;5053193;27;126623;-72
2021/06/14 02:09:09;;;;;;;14.73;10.40;;;;;;;17.36;51.10;102214.59;5040901;27;124071;-72
2021/06/14 02:11:41;;;;;;;16.25;11.00;;;;;;;17.36;51.41;102209.25;5052192;27;114436;-72
2021/06/14 02:14:12;;;;;;;15.18;10.90;;;;;;;17.31;51.31;102213.03;5050140;27;114167;-72
2021/06/14 02:16:42;;;;;;;16.25;10.05;;;;;;;17.28;51.37;102202.47;5035369;27;123006;-72
2021/06/14 02:19:12;;;;;;;18.60;11.02;;;;;;;17.25;51.51;102202.63;5048444;27;124049;-72
2021/06/14 02:21:44;;;;;;;22.67;10.55;;;;;;;17.23;51.61;102199.16;5051695;27;115378;-72
2021/06/14 02:24:13;;;;;;;21.67;10.65;;;;;;;17.22;51.53;102199.25;5041025;27;114767;-72
2021/06/14 02:26:44;;;;;;;14.25;9.85;;;;;;;17.19;51.39;102194.91;5053363;27;123205;-72
2021/06/14 02:29:12;;;;;;;19.65;10.15;;;;;;;17.18;51.42;102201.22;5051990;27;124227;-72
2021/06/14 02:31:42;;;;;;;17.95;9.85;;;;;;;17.18;51.40;102194.97;5030842;28;113338;-71
2021/06/14 02:34:12;;;;;;;16.98;10.73;;;;;;;17.15;51.42;102190.66;5044697;27;114273;-72
2021/06/14 02:36:41;;;;;;;18.02;9.70;;;;;;;17.15;51.37;102190.66;5053202;27;124319;-72
2021/06/14 02:39:13;;;;;;;16.02;10.52;;;;;;;17.13;51.55;102187.19;5052374;27;123080;-72
2021/06/14 02:41:44;;;;;;;19.27;10.75;;;;;;;17.11;51.67;102189.09;5049035;27;113763;-72
2021/06/14 02:44:14;;;;;;;17.08;10.30;;;;;;;17.09;51.70;102174.91;5049422;27;113182;-71
2021/06/14 02:46:48;;;;;;;15.13;10.18;;;;;;;17.08;51.62;102181.19;5044653;27;124377;-72
2021/06/14 02:49:17;;;;;;;11.98;9.32;;;;;;;17.07;51.53;102176.81;5051149;27;123384;-72
2021/06/14 02:51:46;;;;;;;16.20;10.10;;;;;;;17.07;51.72;102182.16;5044264;27;113522;-72
2021/06/14 02:54:29;;;;;;;17.63;10.85;;;;;;;17.06;51.76;102169.69;5045821;27;114182;-72
2021/06/14 02:56:59;;;;;;;19.95;11.50;;;;;;;17.06;51.81;102167.03;5048315;27;124698;-72
2021/06/14 02:59:28;;;;;;;16.48;10.95;;;;;;;17.05;51.97;102162.63;5049255;27;123409;-72
2021/06/14 03:01:58;;;;;;;17.70;11.30;;;;;;;17.04;51.75;102169.78;5042618;27;113462;-72
2021/06/14 03:04:26;;;;;;;19.33;11.30;;;;;;;17.04;51.80;102166.25;5048378;27;113000;-71
2021/06/14 03:06:55;;;;;;;17.92;11.45;;;;;;;17.05;52.00;102162.63;5050529;27;124182;-72
2021/06/14 03:09:27;;;;;;;16.80;10.90;;;;;;;17.03;52.07;102159.19;5051354;27;122979;-72
2021/06/14 03:11:56;;;;;;;16.10;11.35;;;;;;;17.03;51.85;102161.84;5051113;27;114850;-72
2021/06/14 03:14:25;;;;;;;16.20;11.05;;;;;;;17.03;51.89;102164.53;5051942;27;113910;-72
2021/06/14 03:16:52;;;;;;;18.05;10.77;;;;;;;17.02;51.85;102163.63;5044319;27;124472;-72
2021/06/14 03:19:23;;;;;;;18.52;11.35;;;;;;;17.01;51.65;102161.03;5050964;27;123168;-72
2021/06/14 03:21:53;;;;;;;15.07;10.25;;;;;;;16.98;51.47;102166.56;5045011;27;113383;-72
2021/06/14 03:24:27;;;;;;;16.38;10.15;;;;;;;16.92;51.38;102178.44;5052497;27;116849;-72
2021/06/14 03:26:58;;;;;;;16.40;10.50;;;;;;;16.85;51.61;102177.88;5051096;27;123929;-72
2021/06/14 03:29:27;;;;;;;15.45;10.88;;;;;;;16.81;51.65;102180.75;5050720;27;124169;-72
2021/06/14 03:31:55;;;;;;;20.70;11.13;;;;;;;16.78;51.78;102180.91;5052506;27;114541;-72
2021/06/14 03:34:26;;;;;;;18.25;11.57;;;;;;;16.74;51.72;102174.84;5052995;27;114195;-71
2021/06/14 03:36:55;;;;;;;21.08;11.20;;;;;;;16.71;51.71;102181.22;5051158;27;124104;-72
2021/06/14 03:39:23;;;;;;;27.75;11.40;;;;;;;16.69;51.80;102183.09;5048294;27;123665;-72
2021/06/14 03:41:51;;;;;;;18.80;11.07;;;;;;;16.68;51.75;102180.50;5048060;27;114258;-72
2021/06/14 03:44:20;;;;;;;20.35;10.48;;;;;;;16.66;52.00;102182.38;5052443;27;113782;-72
2021/06/14 03:46:49;;;;;;;19.73;10.95;;;;;;;16.65;52.08;102175.28;5053044;27;124187;-72
2021/06/14 03:49:16;;;;;;;19.20;11.35;;;;;;;16.63;51.97;102177.16;5037810;27;124441;-72
2021/06/14 03:51:48;;;;;;;16.98;11.15;;;;;;;16.61;52.10;102179.06;5042756;27;114509;-72
2021/06/14 03:54:15;;;;;;;20.58;11.13;;;;;;;16.62;52.10;102180.81;5044501;27;114645;-72
2021/06/14 03:56:43;;;;;;;17.73;11.25;;;;;;;16.61;51.99;102179.91;5051055;27;124082;-72
2021/06/14 03:59:10;;;;;;;16.02;10.93;;;;;;;16.62;52.15;102175.47;5048399;27;123945;-72
2021/06/14 04:01:37;;;;;;;20.08;11.35;;;;;;;16.64;52.04;102178.91;5049076;27;114922;-72
2021/06/14 04:06:31;;;;;;;22.58;11.75;;;;;;;16.65;52.22;102173.50;5050120;27;124597;-72
2021/06/14 04:08:59;;;;;;;18.65;11.13;;;;;;;16.66;52.42;102167.19;5050736;27;123056;-72
2021/06/14 04:11:26;;;;;;;15.02;10.82;;;;;;;16.68;52.41;102170.66;5051994;27;113313;-72
2021/06/14 04:13:53;;;;;;;17.95;11.32;;;;;;;16.70;52.54;102165.22;5051723;27;113218;-72
2021/06/14 04:16:20;;;;;;;22.75;12.35;;;;;;;16.72;52.53;102177.56;5052670;27;124372;-72
2021/06/14 04:18:49;;;;;;;19.48;12.45;;;;;;;16.74;52.58;102174.84;5049362;27;123968;-72
2021/06/14 04:21:17;;;;;;;19.98;12.07;;;;;;;16.74;52.70;102185.53;5050411;27;114715;-72
2021/06/14 04:23:45;;;;;;;19.83;11.68;;;;;;;16.75;52.78;102181.94;5049937;27;113916;-72
2021/06/14 04:26:12;;;;;;;16.40;11.18;;;;;;;16.75;52.78;102181.94;5049777;27;124445;-72
2021/06/14 04:28:41;;;;;;;18.10;11.85;;;;;;;16.75;53.11;102181.94;5036676;27;124176;-72
2021/06/14 04:31:08;;;;;;;17.67;11.32;;;;;;;16.76;53.04;102175.63;5052865;27;114090;-72
2021/06/14 04:33:35;;;;;;;18.30;11.80;;;;;;;16.77;53.25;102174.69;5039799;27;113863;-72
2021/06/14 04:36:04;;;;;;;19.85;12.60;;;;;;;16.80;53.20;102174.56;5034916;27;125254;-71
2021/06/14 04:38:33;;;;;;;16.67;10.85;;;;;;;16.83;53.37;102174.41;5051107;27;122758;-72
2021/06/14 04:41:01;;;;;;;19.70;11.95;;;;;;;16.88;53.44;102172.38;5047881;27;114237;-71
2021/06/14 04:43:28;;;;;;;17.23;11.63;;;;;;;16.92;53.49;102167.75;5043314;27;114033;-72
2021/06/14 04:45:56;;;;;;;19.80;11.98;;;;;;;16.98;53.69;102169.25;5050209;27;124972;-72
2021/06/14 04:48:23;;;;;;;18.35;11.35;;;;;;;17.05;53.54;102162.63;5046080;27;123724;-72
2021/06/14 04:50:50;;;;;;;23.02;12.18;;;;;;;17.14;53.52;102167.53;5050527;27;115229;-71
2021/06/14 04:53:17;;;;;;;19.83;12.07;;;;;;;17.22;53.75;102159.09;5049683;27;114995;-71
2021/06/14 04:55:45;;;;;;;22.55;12.52;;;;;;;17.30;53.59;102160.41;5048879;27;123800;-71
2021/06/14 04:58:12;;;;;;;26.73;12.60;;;;;;;17.41;53.59;102159.00;5047907;27;124202;-71
2021/06/14 05:00:40;;;;;;;26.60;12.55;;;;;;;17.51;53.51;102160.22;5048434;27;114378;-72
2021/06/14 05:03:07;;;;;;;25.13;12.07;;;;;;;17.62;53.39;102163.19;5050590;27;114118;-71
2021/06/14 05:05:34;;;;;;;21.08;12.07;;;;;;;17.74;53.36;102158.13;5050949;27;122952;-71
2021/06/14 05:08:01;;;;;;;21.80;12.10;;;;;;;17.86;53.00;102160.19;5051621;27;123860;-71
2021/06/14 05:10:30;;;;;;;20.45;12.30;;;;;;;17.98;52.78;102162.16;5051634;27;114298;-71
2021/06/14 05:12:57;;;;;;;19.13;12.20;;;;;;;18.08;52.35;102165.19;5048383;27;113996;-71
2021/06/14 05:15:25;;;;;;;23.10;11.95;;;;;;;18.19;52.46;102178.00;5048449;27;123872;-71
2021/06/14 05:17:52;;;;;;;18.48;11.52;;;;;;;18.29;52.18;102168.50;5051027;27;123982;-71
2021/06/14 05:20:20;;;;;;;17.58;11.10;;;;;;;18.39;52.12;102167.03;5049832;27;114030;-72
2021/06/14 05:22:47;;;;;;;21.27;12.50;;;;;;;18.50;52.19;102163.75;5049555;27;114360;-71
2021/06/14 05:25:15;;;;;;;25.77;12.63;;;;;;;18.61;52.04;102160.41;5048658;27;123899;-72
2021/06/14 05:27:42;;;;;;;20.20;11.90;;;;;;;18.71;51.80;102158.09;5050737;27;125056;-72
2021/06/14 05:30:10;;;;;;;18.02;11.95;;;;;;;18.79;51.56;102151.28;5049679;27;114589;-71
2021/06/14 05:32:38;;;;;;;20.50;11.50;;;;;;;18.88;51.34;102154.44;5050712;27;114083;-72
2021/06/14 05:35:07;;;;;;;24.42;12.02;;;;;;;18.97;51.00;102164.63;5049325;27;124104;-71
2021/06/14 05:37:35;;;;;;;28.23;12.50;;;;;;;19.08;51.31;102174.72;5049620;27;124264;-71
2021/06/14 05:40:07;;;;;;;22.85;12.15;;;;;;;19.18;51.38;102182.13;5038794;27;115331;-71
2021/06/14 05:42:36;;;;;;;21.55;11.15;;;;;;;19.29;50.78;102192.25;5047968;27;114991;-70
2021/06/14 05:45:05;;;;;;;25.45;11.32;;;;;;;19.39;50.52;102198.78;5051314;27;123984;-70
2021/06/14 05:47:32;;;;;;;20.33;11.00;;;;;;;19.50;50.32;102194.59;5053283;27;123800;-70
2021/06/14 05:49:59;;;;;;;20.98;11.43;;;;;;;19.61;50.13;102205.53;5055035;27;114046;-70
2021/06/14 05:52:26;;;;;;;17.08;10.18;;;;;;;19.72;50.44;102188.72;5053905;27;114375;-70
2021/06/14 05:54:53;;;;;;;15.95;10.82;;;;;;;19.83;49.84;102183.56;5055694;27;123851;-70
2021/06/14 05:57:21;;;;;;;16.80;11.02;;;;;;;19.96;49.77;102175.59;5053230;27;123955;-70
2021/06/14 05:59:48;;;;;;;19.92;11.57;;;;;;;20.09;49.96;102175.69;5052627;27;114157;-70
2021/06/14 06:02:15;;;;;;;19.33;10.75;;;;;;;20.22;49.16;102176.63;5050712;27;114302;-70
2021/06/14 06:04:42;;;;;;;14.57;10.43;;;;;;;20.35;49.10;102172.16;5051635;27;124583;-70
2021/06/14 06:07:09;;;;;;;16.80;11.00;;;;;;;20.49;49.15;102163.19;5052156;27;123683;-70
2021/06/14 06:09:36;;;;;;;15.65;9.98;;;;;;;20.62;48.20;102152.50;5052239;27;114673;-70
2021/06/14 06:12:03;;;;;;;18.05;10.45;;;;;;;20.74;48.13;102146.31;5049310;27;114940;-70
2021/06/14 06:14:30;;;;;;;15.75;10.30;;;;;;;20.89;48.26;102138.13;5033324;27;124093;-70
2021/06/14 06:16:58;;;;;;;19.80;9.63;;;;;;;21.05;48.07;102144.22;5046680;27;123718;-70
2021/06/14 06:19:25;;;;;;;16.95;9.88;;;;;;;21.22;47.78;102140.34;5046480;27;115018;-70
2021/06/14 06:21:52;;;;;;;18.05;10.20;;;;;;;21.42;47.47;102136.28;5047002;27;114536;-70
2021/06/14 06:24:19;;;;;;;20.83;9.70;;;;;;;21.62;47.14;102139.41;5045156;27;124114;-70
2021/06/14 06:26:46;;;;;;;22.77;10.18;;;;;;;21.81;47.13;102137.09;5032832;27;124626;-70
2021/06/14 06:29:14;;;;;;;15.50;9.75;;;;;;;22.00;46.69;102131.25;5051228;27;114961;-70
2021/06/14 06:31:41;;;;;;;15.48;9.90;;;;;;;22.18;46.69;102123.63;5051063;27;114813;-71
2021/06/14 06:34:09;;;;;;;16.08;10.15;;;;;;;22.37;45.98;102116.91;5051232;27;124758;-71
2021/06/14 06:36:36;;;;;;;16.58;9.90;;;;;;;22.52;45.91;102123.84;5052178;27;124028;-70
2021/06/14 06:39:04;;;;;;;16.25;9.60;;;;;;;22.71;45.48;102121.47;5049276;27;114421;-71
2021/06/14 06:41:32;;;;;;;17.88;9.73;;;;;;;22.90;44.86;102125.47;5045295;27;114504;-72
2021/06/14 06:43:59;;;;;;;17.58;9.95;;;;;;;23.08;44.37;102117.81;5045076;27;124880;-71
2021/06/14 06:46:26;;;;;;;15.85;9.98;;;;;;;23.26;43.90;102110.09;5038965;27;124386;-71
2021/06/14 06:48:53;;;;;;;19.65;9.88;;;;;;;23.43;43.86;102109.63;5050848;27;114344;-72
2021/06/14 06:51:21;;;;;;;18.52;9.82;;;;;;;23.62;43.47;102106.31;5052481;27;114540;-71
2021/06/14 06:53:48;;;;;;;17.20;9.80;;;;;;;23.80;43.39;102112.09;5048455;27;123978;-71
2021/06/14 06:56:15;;;;;;;16.63;10.13;;;;;;;24.00;42.66;102120.44;5050315;27;124184;-71
2021/06/14 06:58:42;;;;;;;17.02;10.05;;;;;;;24.17;42.31;102111.78;5052201;27;113022;-72
2021/06/14 07:01:09;;;;;;;17.20;10.13;;;;;;;24.35;41.92;102114.81;5045977;27;113931;-71
2021/06/14 07:03:37;;;;;;;18.58;11.00;;;;;;;24.54;41.65;102111.44;5050944;27;123869;-71
2021/06/14 07:06:04;;;;;;;18.63;10.80;;;;;;;24.73;42.19;102101.75;5051220;27;124283;-71
2021/06/14 07:08:31;;;;;;;16.20;9.88;;;;;;;24.91;41.02;102105.59;5050425;27;115105;-72
2021/06/14 07:10:58;;;;;;;14.18;10.45;;;;;;;25.07;41.05;102105.13;5052632;27;114414;-71
2021/06/14 07:13:25;;;;;;;19.60;10.75;;;;;;;25.24;40.05;102100.97;5051911;27;123062;-71
2021/06/14 07:15:53;;;;;;;23.27;10.65;;;;;;;25.38;40.54;102097.91;5052536;27;123695;-71
2021/06/14 07:18:20;;;;;;;19.83;10.75;;;;;;;25.56;39.60;102094.53;5052928;27;115558;-72
2021/06/14 07:20:47;;;;;;;14.60;10.00;;;;;;;25.73;39.85;102104.78;5046156;27;115108;-71
2021/06/14 07:23:14;;;;;;;19.60;10.07;;;;;;;25.89;39.88;102111.53;5029675;27;124285;-72
2021/06/14 07:25:41;;;;;;;18.58;10.82;;;;;;;26.05;39.38;102111.00;5050444;27;124174;-72
2021/06/14 07:28:08;;;;;;;15.85;10.50;;;;;;;26.20;39.38;102110.50;5048698;27;113213;-72
2021/06/14 07:30:37;;;;;;;18.63;10.77;;;;;;;26.37;39.15;102099.91;5046018;27;113285;-72
2021/06/14 07:33:05;;;;;;;17.58;10.98;;;;;;;26.54;39.25;102096.50;5040293;27;124083;-72
2021/06/14 07:35:36;;;;;;;16.90;10.65;;;;;;;26.71;38.44;102092.22;5052365;27;123859;-72
2021/06/14 07:38:06;;;;;;;21.35;10.88;;;;;;;26.86;38.11;102094.47;5053395;27;114224;-72
2021/06/14 07:40:33;;;;;;;16.25;11.27;;;;;;;26.99;37.81;102095.91;5035285;27;114132;-72
2021/06/14 07:43:00;;;;;;;21.42;11.88;;;;;;;27.12;37.26;102094.72;5060032;22;124382;-72
2021/06/14 07:45:27;;;;;;;18.23;10.80;;;;;;;27.20;37.62;102086.69;5031271;27;123613;-73
2021/06/14 07:47:55;;;;;;;20.85;11.80;;;;;;;27.31;36.67;102078.38;5035681;27;114195;-72
2021/06/14 07:50:22;;;;;;;16.83;10.73;;;;;;;27.42;37.30;102077.31;5033460;27;112308;-73
2021/06/14 07:52:49;;;;;;;18.85;10.40;;;;;;;27.52;37.00;102074.53;5050590;27;124334;-73
2021/06/14 07:55:16;;;;;;;20.20;10.30;;;;;;;27.60;36.66;102071.94;5048126;27;123561;-73
2021/06/14 07:57:43;;;;;;;21.65;10.63;;;;;;;27.69;36.13;102071.03;5049233;27;113283;-73
2021/06/14 08:00:11;;;;;;;19.38;12.30;;;;;;;27.80;36.60;102060.94;5051839;27;114347;-73
2021/06/14 08:02:41;;;;;;;18.15;10.50;;;;;;;27.90;35.59;102053.59;5036304;27;124041;-73
2021/06/14 08:05:11;;;;;;;17.13;10.23;;;;;;;27.98;35.77;102048.22;5050285;27;124142;-72
2021/06/14 08:07:38;;;;;;;20.08;11.07;;;;;;;28.06;35.16;102051.03;5021252;27;114057;-73
2021/06/14 08:10:09;;;;;;;26.23;11.90;;;;;;;28.09;34.93;102045.28;5051322;27;115586;-73
2021/06/14 08:12:41;;;;;;;18.05;11.02;;;;;;;28.12;34.84;102039.53;5037333;27;124215;-72
2021/06/14 08:15:08;;;;;;;15.25;10.25;;;;;;;28.17;35.36;102022.72;5049037;27;124177;-73
2021/06/14 08:17:36;;;;;;;17.10;10.70;;;;;;;28.25;34.38;102016.47;5050752;27;114076;-72
2021/06/14 08:25:17;;;;;;;17.70;10.07;;;;;;;28.48;34.59;102012.25;5048735;27;123221;-73
2021/06/14 08:27:46;;;;;;;18.95;9.85;;;;;;;28.58;34.19;102022.25;5049211;27;113315;-73
2021/06/14 08:30:25;;;;;;;18.15;10.18;;;;;;;28.63;34.25;102022.59;5039340;27;114108;-73
2021/06/14 08:32:52;;;;;;;15.88;9.07;;;;;;;28.66;33.72;102025.00;5036294;27;123797;-72
2021/06/14 08:35:22;;;;;;;14.52;8.82;;;;;;;28.71;33.82;102022.66;5050273;27;123853;-73
2021/06/14 08:37:50;;;;;;;15.27;9.90;;;;;;;28.78;33.55;102012.81;5037170;27;114154;-73
2021/06/14 08:40:21;;;;;;;16.35;9.70;;;;;;;28.84;32.79;102014.91;5049966;27;113152;-73
2021/06/14 08:42:48;;;;;;;18.85;10.40;;;;;;;28.84;33.13;102014.03;5047431;27;124607;-73
2021/06/14 08:45:17;;;;;;;17.00;9.57;;;;;;;28.88;33.40;102021.75;5040276;27;123969;-73
2021/06/14 08:47:46;;;;;;;12.95;9.23;;;;;;;28.95;33.63;102023.81;5056912;27;114215;-73
2021/06/14 08:50:18;;;;;;;16.45;9.73;;;;;;;29.00;33.66;102016.03;5051473;27;113578;-73
2021/06/14 08:52:47;;;;;;;13.60;9.55;;;;;;;29.08;33.70;102010.59;5034924;27;123114;-73
2021/06/14 08:55:15;;;;;;;14.13;8.65;;;;;;;29.18;33.24;102014.09;5047304;27;124665;-73
2021/06/14 08:57:44;;;;;;;11.60;7.40;;;;;;;29.26;32.91;102016.88;5049201;27;115322;-73
2021/06/14 09:00:18;;;;;;;12.43;6.47;;;;;;;29.37;32.22;102017.59;5049420;27;115638;-73
2021/06/14 09:02:46;;;;;;;13.20;6.57;;;;;;;29.46;31.50;102022.03;5048187;27;125265;-73
2021/06/14 09:05:16;;;;;;;12.27;5.70;;;;;;;29.52;30.60;102015.94;5049924;27;124395;-73
2021/06/14 09:07:43;;;;;;;10.52;5.50;;;;;;;29.59;31.16;102017.00;5049391;27;113861;-73
2021/06/14 09:10:41;;;;;;;9.50;5.32;;;;;;;29.70;31.86;102013.97;5050554;27;114549;-73
2021/06/14 09:13:16;;;;;;;10.98;4.50;;;;;;;29.83;30.93;102008.03;5028440;27;123980;-73
2021/06/14 09:15:47;;;;;;;8.65;5.32;;;;;;;29.88;30.49;101988.41;5034725;27;122167;-73
2021/06/14 09:18:16;;;;;;;8.73;5.95;;;;;;;29.92;30.28;101997.97;5049204;27;114198;-73
2021/06/14 09:20:58;;;;;;;13.95;6.35;;;;;;;29.93;30.45;102001.56;5047742;27;113767;-73
2021/06/14 09:23:37;;;;;;;11.13;7.00;;;;;;;29.96;30.43;101993.88;5045192;27;124033;-73
2021/06/14 09:26:04;;;;;;;13.75;6.38;;;;;;;29.99;30.67;101996.28;5050911;27;124187;-74
2021/06/14 09:28:31;;;;;;;10.90;6.75;;;;;;;30.03;30.23;102000.38;5054027;27;113454;-73
2021/06/14 09:31:12;;;;;;;16.40;7.13;;;;;;;30.04;30.23;102004.78;5052998;27;113621;-72
2021/06/14 09:33:44;;;;;;;10.75;6.07;;;;;;;30.04;30.77;101996.59;5038587;27;124556;-73
2021/06/14 09:36:12;;;;;;;11.77;5.75;;;;;;;30.08;30.46;102000.72;5036423;27;124578;-73
2021/06/14 09:38:39;;;;;;;13.57;6.80;;;;;;;30.07;30.11;101988.06;5053894;27;113967;-73
2021/06/14 09:41:17;;;;;;;10.13;5.90;;;;;;;30.08;30.50;101978.88;5052418;27;114290;-74
2021/06/14 09:43:46;;;;;;;12.88;5.22;;;;;;;30.18;30.65;101975.97;5052831;27;124037;-73
2021/06/14 09:46:28;;;;;;;10.82;5.20;;;;;;;30.29;30.19;101980.25;5034294;27;123449;-73
2021/06/14 09:48:58;;;;;;;10.25;4.30;;;;;;;30.35;29.05;101974.09;5051030;27;114294;-73
2021/06/14 09:51:27;;;;;;;9.00;4.95;;;;;;;30.38;29.74;101971.00;5050581;27;115497;-73
2021/06/14 09:53:54;;;;;;;12.70;5.68;;;;;;;30.42;29.16;101980.59;5034386;27;123251;-73
2021/06/14 09:56:37;;;;;;;10.05;5.10;;;;;;;30.49;30.08;101985.38;5049855;27;123146;-73
2021/06/14 09:59:07;;;;;;;11.52;5.50;;;;;;;30.58;30.46;101989.81;5051009;27;113696;-73
2021/06/14 10:01:37;;;;;;;11.00;5.13;;;;;;;30.67;30.20;101977.81;5051441;27;112742;-73
2021/06/14 10:04:09;;;;;;;8.57;5.57;;;;;;;30.76;29.74;101982.25;5051693;27;126094;-73
2021/06/14 10:06:44;;;;;;;10.95;5.10;;;;;;;30.80;29.95;101978.13;5052106;27;124145;-73
2021/06/14 10:09:16;;;;;;;9.90;4.88;;;;;;;30.88;30.43;101981.88;5038552;27;114310;-73
2021/06/14 10:11:45;;;;;;;10.07;4.78;;;;;;;30.98;30.06;101968.84;5050777;27;114084;-74
2021/06/14 10:14:16;;;;;;;9.15;4.25;;;;;;;31.04;30.01;101973.63;5043428;27;123832;-73
2021/06/14 10:16:48;;;;;;;10.07;4.47;;;;;;;31.09;29.78;101970.38;5046785;27;123736;-72
2021/06/14 10:19:18;;;;;;;12.25;4.63;;;;;;;31.13;29.76;101972.56;5052144;27;113633;-73
2021/06/14 10:21:49;;;;;;;6.18;4.00;;;;;;;31.14;29.21;101971.53;5053112;27;114208;-73
2021/06/14 10:24:21;;;;;;;9.35;4.40;;;;;;;31.18;29.78;101980.25;5028511;28;123234;-73
2021/06/14 10:26:52;;;;;;;9.43;4.50;;;;;;;31.23;29.00;101970.47;5044829;27;124004;-73
2021/06/14 10:29:21;;;;;;;10.70;4.30;;;;;;;31.26;29.12;101965.66;5052706;27;114511;-73
2021/06/14 10:31:51;;;;;;;8.05;4.28;;;;;;;31.28;28.84;101964.44;5052565;27;114213;-73
2021/06/14 10:34:19;;;;;;;8.73;4.05;;;;;;;31.28;28.07;101963.59;5016448;27;124012;-72
2021/06/14 10:36:52;;;;;;;8.40;4.13;;;;;;;31.28;28.55;101972.66;5030679;27;122572;-72
2021/06/14 10:39:22;;;;;;;8.10;4.28;;;;;;;31.30;28.06;101967.00;5044902;27;115754;-73
2021/06/14 10:41:50;;;;;;;8.00;4.32;;;;;;;31.32;28.90;101970.41;5043225;27;114809;-73
2021/06/14 10:44:17;;;;;;;8.75;3.47;;;;;;;31.35;29.16;101959.97;5046930;27;123182;-72
2021/06/14 10:46:46;;;;;;;9.52;3.92;;;;;;;31.38;29.31;101953.28;5040680;27;123693;-73
2021/06/14 10:49:15;;;;;;;8.43;3.90;;;;;;;31.41;29.20;101952.91;5041053;27;114161;-73
2021/06/14 10:51:45;;;;;;;6.60;3.63;;;;;;;31.46;28.74;101950.50;5052635;27;113792;-73
2021/06/14 10:54:17;;;;;;;8.70;3.83;;;;;;;31.49;28.35;101950.16;5033757;27;123127;-73
2021/06/14 10:56:46;;;;;;;9.10;3.90;;;;;;;31.53;28.88;101950.66;5052719;27;123697;-73
2021/06/14 10:59:14;;;;;;;8.15;3.67;;;;;;;31.57;29.70;101946.50;5049620;27;114447;-73
2021/06/14 11:01:44;;;;;;;9.63;4.00;;;;;;;31.64;28.92;101942.00;5053360;27;113869;-73
2021/06/14 11:04:30;;;;;;;9.20;4.03;;;;;;;31.73;28.99;101945.56;5051814;27;123773;-73
2021/06/14 11:06:59;;;;;;;7.25;4.03;;;;;;;31.80;28.14;101935.59;5051615;27;123708;-74
2021/06/14 11:09:45;;;;;;;8.95;3.97;;;;;;;31.85;28.83;101933.13;5053056;27;114696;-73
2021/06/14 11:12:26;;;;;;;7.93;3.90;;;;;;;31.91;28.70;101932.41;5050838;27;114054;-74
2021/06/14 11:14:53;;;;;;;7.85;3.47;;;;;;;31.98;28.08;101927.88;5036990;27;124274;-73
2021/06/14 11:17:34;;;;;;;7.30;3.47;;;;;;;32.03;28.30;101934.75;5051651;27;122906;-73
2021/06/14 11:20:02;;;;;;;10.25;3.55;;;;;;;32.06;28.24;101929.75;5051161;27;113874;-73
2021/06/14 11:22:50;;;;;;;9.52;3.60;;;;;;;32.08;28.33;101915.84;5052019;27;114033;-74